createdAt,value
2023-01-17T00:02:19.157Z,1.48
2023-01-17T00:05:06.754Z,1.54
2023-01-17T00:07:54.823Z,1.42
2023-01-17T00:10:25.988Z,1.33
2023-01-17T00:12:56.004Z,1.28
2023-01-17T00:15:25.304Z,1.32
2023-01-17T00:17:54.827Z,1.24
2023-01-17T00:20:48.678Z,1.17
2023-01-17T00:23:37.327Z,1.09
2023-01-17T00:26:12.100Z,1.12
2023-01-17T00:28:41.749Z,1.11
2023-01-17T00:31:13.092Z,1.09
2023-01-17T00:33:42.027Z,1.12
2023-01-17T00:36:11.441Z,1.04
2023-01-17T00:38:40.519Z,1.03
2023-01-17T00:41:11.757Z,0.93
2023-01-17T00:43:58.885Z,0.96
2023-01-17T00:46:46.071Z,0.98
2023-01-17T00:49:34.257Z,0.93
2023-01-17T00:52:21.088Z,0.76
2023-01-17T00:55:07.986Z,0.64
2023-01-17T00:57:54.897Z,0.58
2023-01-17T01:00:41.959Z,0.55
2023-01-17T01:03:30.368Z,0.51
2023-01-17T01:06:17.837Z,0.62
2023-01-17T01:09:05.143Z,0.61
2023-01-17T01:11:51.922Z,0.58
2023-01-17T01:14:39.359Z,0.54
2023-01-17T01:17:26.264Z,0.51
2023-01-17T01:20:13.490Z,0.47
2023-01-17T01:23:00.464Z,0.46
2023-01-17T01:25:47.151Z,0.53
2023-01-17T01:28:34.139Z,0.51
2023-01-17T01:31:23.337Z,0.51
2023-01-17T01:33:53.065Z,0.58
2023-01-17T01:36:21.710Z,0.58
2023-01-17T01:38:50.597Z,0.61
2023-01-17T01:41:19.188Z,0.54
2023-01-17T01:43:52.992Z,0.49
2023-01-17T01:46:30.283Z,0.42
2023-01-17T01:49:06.265Z,0.58
2023-01-17T01:51:50.812Z,0.60
2023-01-17T01:54:34.143Z,0.55
2023-01-17T01:57:05.913Z,0.69
2023-01-17T01:59:35.171Z,0.71
2023-01-17T02:02:03.254Z,0.64
2023-01-17T02:04:31.484Z,0.54
2023-01-17T02:07:13.031Z,0.54
2023-01-17T02:09:41.935Z,0.59
2023-01-17T02:12:11.540Z,0.65
2023-01-17T02:14:39.930Z,0.74
2023-01-17T02:17:27.961Z,0.76
2023-01-17T02:20:05.157Z,0.74
2023-01-17T02:23:19.026Z,0.65
2023-01-17T02:26:13.377Z,0.53
2023-01-17T02:29:19.545Z,0.54
2023-01-17T02:32:37.094Z,0.40
2023-01-17T02:35:16.326Z,0.37
2023-01-17T02:38:25.664Z,0.37
2023-01-17T02:41:03.977Z,0.56
2023-01-17T02:43:34.097Z,0.55
2023-01-17T02:46:02.363Z,0.58
2023-01-17T02:48:33.440Z,0.69
2023-01-17T02:51:30.882Z,0.78
2023-01-17T02:54:15.949Z,0.79
2023-01-17T02:56:44.074Z,0.83
2023-01-17T02:59:18.045Z,0.74
2023-01-17T03:01:58.459Z,0.79
2023-01-17T03:04:51.774Z,0.87
2023-01-17T03:07:27.545Z,0.92
2023-01-17T03:10:00.715Z,0.92
2023-01-17T03:12:31.576Z,0.88
2023-01-17T03:14:59.867Z,0.71
2023-01-17T03:17:33.141Z,0.67
2023-01-17T03:20:01.304Z,0.62
2023-01-17T03:22:29.489Z,0.57
2023-01-17T03:24:57.862Z,0.58
2023-01-17T03:27:26.354Z,0.61
2023-01-17T03:29:54.819Z,0.62
2023-01-17T03:32:23.413Z,0.61
2023-01-17T03:34:51.690Z,0.57
2023-01-17T03:37:20.367Z,0.66
2023-01-17T03:39:49.373Z,0.74
2023-01-17T03:42:17.557Z,0.83
2023-01-17T03:44:46.032Z,0.91
2023-01-17T03:47:14.217Z,0.93
2023-01-17T03:49:42.390Z,0.93
2023-01-17T03:52:10.962Z,1.00
2023-01-17T03:54:39.254Z,1.05
2023-01-17T03:57:08.860Z,1.10
2023-01-17T03:59:37.174Z,1.15
2023-01-17T04:02:05.626Z,1.26
2023-01-17T04:04:34.408Z,1.41
2023-01-17T04:07:02.506Z,1.56
2023-01-17T04:09:34.347Z,1.73
2023-01-17T04:12:03.361Z,1.94
2023-01-17T04:14:31.519Z,2.19
2023-01-17T04:17:00.262Z,2.41
2023-01-17T04:19:29.411Z,2.60
2023-01-17T04:21:57.554Z,2.75
2023-01-17T04:24:25.797Z,2.84
2023-01-17T04:26:53.931Z,2.89
2023-01-17T04:29:22.414Z,2.94
2023-01-17T04:31:50.946Z,2.86
2023-01-17T04:34:19.250Z,2.75
2023-01-17T04:36:47.671Z,2.53
2023-01-17T04:39:15.938Z,2.43
2023-01-17T04:41:44.269Z,2.24
2023-01-17T04:44:12.597Z,2.16
2023-01-17T04:46:40.986Z,2.18
2023-01-17T04:49:09.359Z,2.14
2023-01-17T04:51:37.939Z,2.11
2023-01-17T04:54:06.423Z,2.25
2023-01-17T04:56:34.802Z,2.39
2023-01-17T04:59:03.080Z,2.42
2023-01-17T05:01:31.361Z,2.23
2023-01-17T05:03:59.635Z,2.07
2023-01-17T05:06:27.785Z,1.96
2023-01-17T05:08:56.089Z,1.92
2023-01-17T05:11:24.888Z,1.94
2023-01-17T05:13:53.270Z,1.99
2023-01-17T05:16:21.369Z,1.96
2023-01-17T05:18:53.768Z,1.99
2023-01-17T05:21:22.721Z,1.99
2023-01-17T05:23:51.812Z,1.97
2023-01-17T05:26:20.241Z,1.99
2023-01-17T05:28:48.569Z,1.98
2023-01-17T05:31:17.635Z,1.93
2023-01-17T05:33:45.867Z,1.93
2023-01-17T05:36:14.223Z,2.01
2023-01-17T05:38:42.532Z,2.10
2023-01-17T05:41:11.003Z,2.24
2023-01-17T05:43:39.469Z,2.38
2023-01-17T05:46:08.724Z,2.52
2023-01-17T05:48:37.061Z,2.64
2023-01-17T05:51:05.341Z,2.77
2023-01-17T05:53:34.314Z,2.91
2023-01-17T05:56:02.602Z,3.04
2023-01-17T05:58:31.084Z,3.15
2023-01-17T06:01:01.655Z,3.20
2023-01-17T06:03:30.227Z,3.25
2023-01-17T06:06:00.352Z,3.26
2023-01-17T06:08:28.805Z,3.27
2023-01-17T06:10:59.656Z,3.28
2023-01-17T06:13:27.856Z,3.33
2023-01-17T06:16:02.875Z,3.40
2023-01-17T06:18:31.967Z,3.48
2023-01-17T06:21:00.335Z,3.53
2023-01-17T06:23:28.647Z,3.64
2023-01-17T06:25:57.115Z,3.76
2023-01-17T06:28:25.580Z,3.86
2023-01-17T06:30:54.036Z,3.94
2023-01-17T06:33:23.877Z,3.98
2023-01-17T06:35:53.158Z,4.04
2023-01-17T06:38:22.006Z,4.09
2023-01-17T06:40:50.239Z,4.15
2023-01-17T06:43:19.136Z,4.17
2023-01-17T06:45:49.319Z,4.19
2023-01-17T06:48:18.975Z,4.02
2023-01-17T06:50:48.700Z,3.80
2023-01-17T06:53:20.641Z,3.52
2023-01-17T06:55:49.552Z,3.53
2023-01-17T06:58:19.662Z,3.51
2023-01-17T07:00:48.246Z,3.42
2023-01-17T07:03:22.259Z,3.34
2023-01-17T07:05:51.861Z,3.29
2023-01-17T07:08:20.825Z,3.26
2023-01-17T07:10:49.492Z,3.33
2023-01-17T07:13:17.956Z,3.50
2023-01-17T07:15:47.397Z,3.66
2023-01-17T07:18:20.620Z,3.98
2023-01-17T07:20:52.911Z,4.35
2023-01-17T07:23:23.757Z,4.40
2023-01-17T07:25:59.872Z,4.38
2023-01-17T07:28:28.809Z,4.37
2023-01-17T07:30:57.807Z,4.35
2023-01-17T07:33:26.127Z,4.31
2023-01-17T07:40:04.027Z,3.81
2023-01-17T07:42:30.991Z,3.71
2023-01-17T07:45:00.260Z,3.65
2023-01-17T07:47:27.096Z,3.47
2023-01-17T07:49:54.325Z,3.44
2023-01-17T07:52:21.206Z,3.36
2023-01-17T07:54:48.155Z,3.29
2023-01-17T07:57:15.060Z,3.25
2023-01-17T07:59:42.452Z,3.26
2023-01-17T08:02:17.707Z,3.21
2023-01-17T08:04:45.155Z,3.40
2023-01-17T08:07:13.526Z,3.53
2023-01-17T08:09:42.022Z,3.57
2023-01-17T08:12:09.990Z,3.58
2023-01-17T08:14:36.928Z,3.66
2023-01-17T08:17:10.064Z,3.78
2023-01-17T08:19:37.079Z,4.04
2023-01-17T08:22:04.226Z,4.39
2023-01-17T08:24:30.957Z,4.72
2023-01-17T08:26:57.651Z,4.97
2023-01-17T08:29:24.565Z,5.30
2023-01-17T08:31:51.657Z,5.90
2023-01-17T08:34:18.620Z,6.40
2023-01-17T08:36:47.489Z,6.45
2023-01-17T08:39:14.298Z,6.43
2023-01-17T08:41:41.209Z,6.36
2023-01-17T08:44:08.489Z,6.22
2023-01-17T08:46:38.315Z,6.15
2023-01-17T08:49:05.147Z,6.07
2023-01-17T08:51:33.021Z,6.04
2023-01-17T08:53:59.972Z,5.96
2023-01-17T08:56:27.365Z,6.00
2023-01-17T08:58:54.478Z,6.09
2023-01-17T09:01:21.244Z,6.31
2023-01-17T09:03:49.324Z,6.63
2023-01-17T09:06:17.058Z,6.62
2023-01-17T09:08:47.482Z,6.61
2023-01-17T09:11:16.723Z,6.59
2023-01-17T09:13:44.241Z,6.48
2023-01-17T09:16:11.568Z,6.45
2023-01-17T09:18:38.873Z,6.32
2023-01-17T09:21:17.417Z,6.30
2023-01-17T09:23:44.894Z,6.26
2023-01-17T09:26:20.094Z,6.24
2023-01-17T09:28:47.852Z,6.22
2023-01-17T09:31:17.373Z,6.20
2023-01-17T09:33:44.424Z,6.24
2023-01-17T09:36:11.204Z,6.27
2023-01-17T09:38:39.725Z,6.37
2023-01-17T09:41:28.140Z,6.45
2023-01-17T09:44:39.778Z,6.58
2023-01-17T09:47:34.212Z,6.92
2023-01-17T09:50:25.293Z,7.07
2023-01-17T09:53:00.836Z,7.23
2023-01-17T09:55:34.379Z,7.33
2023-01-17T09:58:07.369Z,7.40
2023-01-17T10:00:59.834Z,7.48
2023-01-17T10:04:01.448Z,7.59
2023-01-17T10:07:25.736Z,7.67
2023-01-17T10:10:01.832Z,7.68
2023-01-17T10:12:50.367Z,7.64
2023-01-17T10:15:30.699Z,7.71
2023-01-17T10:18:07.077Z,7.77
2023-01-17T10:20:54.089Z,7.83
2023-01-17T10:23:33.013Z,7.87
2023-01-17T10:26:30.643Z,7.89
2023-01-17T10:29:03.766Z,7.95
2023-01-17T10:31:37.970Z,7.85
2023-01-17T10:34:28.999Z,7.84
2023-01-17T10:37:18.401Z,7.80
2023-01-17T10:39:48.185Z,7.92
2023-01-17T10:42:25.244Z,8.01
2023-01-17T10:45:14.677Z,8.04
2023-01-17T10:47:47.935Z,7.99
2023-01-17T10:50:16.022Z,7.96
2023-01-17T10:52:56.273Z,7.80
2023-01-17T10:55:43.593Z,7.67
2023-01-17T10:58:14.624Z,7.60
2023-01-17T11:00:54.305Z,7.55
2023-01-17T11:03:21.236Z,7.54
2023-01-17T11:06:24.334Z,7.57
2023-01-17T11:08:58.973Z,7.63
2023-01-17T11:11:31.739Z,7.65
2023-01-17T11:14:25.831Z,7.62
2023-01-17T11:17:04.333Z,7.63
2023-01-17T11:19:35.789Z,7.60
2023-01-17T11:22:05.934Z,7.54
2023-01-17T11:24:50.557Z,7.48
2023-01-17T11:27:28.520Z,7.48
2023-01-17T11:30:06.693Z,7.42
2023-01-17T11:32:34.254Z,7.37
2023-01-17T11:35:32.135Z,7.34
2023-01-17T11:38:01.861Z,7.32
2023-01-17T11:40:39.529Z,7.27
2023-01-17T11:43:13.859Z,7.19
2023-01-17T11:45:41.477Z,7.10
2023-01-17T11:48:08.366Z,7.13
2023-01-17T11:50:58.980Z,7.17
2023-01-17T11:53:29.911Z,7.18
2023-01-17T11:55:57.078Z,7.20
2023-01-17T11:58:26.917Z,7.23
2023-01-17T12:01:20.153Z,7.21
2023-01-17T12:04:02.474Z,7.29
2023-01-17T12:06:56.507Z,7.37
2023-01-17T12:09:39.858Z,7.36
2023-01-17T12:12:36.815Z,7.39
2023-01-17T12:15:21.829Z,7.39
2023-01-17T12:18:10.434Z,7.38
2023-01-17T12:21:03.012Z,7.39
2023-01-17T12:23:56.758Z,7.40
2023-01-17T12:26:45.443Z,7.36
2023-01-17T12:29:48.414Z,7.33
2023-01-17T12:32:27.335Z,7.33
2023-01-17T12:35:09.034Z,7.29
2023-01-17T12:38:03.716Z,7.32
2023-01-17T12:41:00.173Z,7.35
2023-01-17T12:43:34.733Z,7.32
2023-01-17T12:46:10.045Z,7.28
2023-01-17T12:48:38.715Z,7.28
2023-01-17T12:51:17.720Z,7.27
2023-01-17T12:54:15.926Z,7.29
2023-01-17T12:56:51.874Z,7.34
2023-01-17T12:59:29.541Z,7.40
2023-01-17T13:01:59.133Z,7.46
2023-01-17T13:04:34.141Z,7.42
2023-01-17T13:07:26.289Z,7.37
2023-01-17T13:10:11.531Z,7.32
2023-01-17T13:12:39.223Z,7.25
2023-01-17T13:15:16.911Z,7.22
2023-01-17T13:18:13.703Z,7.19
2023-01-17T13:21:04.271Z,7.09
2023-01-17T13:23:52.439Z,7.07
2023-01-17T13:26:25.303Z,7.01
2023-01-17T13:29:23.069Z,6.93
2023-01-17T13:32:27.334Z,6.90
2023-01-17T13:35:09.999Z,6.86
2023-01-17T13:37:49.048Z,6.78
2023-01-17T13:40:39.370Z,6.73
2023-01-17T13:43:14.681Z,6.69
2023-01-17T13:45:51.983Z,6.63
2023-01-17T13:48:19.016Z,6.61
2023-01-17T13:50:46.166Z,6.55
2023-01-17T13:53:46.096Z,6.51
2023-01-17T13:56:19.004Z,6.46
2023-01-17T13:58:49.805Z,6.40
2023-01-17T14:01:42.692Z,6.32
2023-01-17T14:04:12.986Z,6.30
2023-01-17T14:06:47.425Z,6.26
2023-01-17T14:09:20.108Z,6.22
2023-01-17T14:12:04.058Z,6.21
2023-01-17T14:14:40.416Z,6.19
2023-01-17T14:17:22.630Z,6.19
2023-01-17T14:20:05.737Z,6.19
2023-01-17T14:22:40.681Z,6.17
2023-01-17T14:25:19.196Z,6.15
2023-01-17T14:27:52.176Z,6.12
2023-01-17T14:30:27.424Z,6.11
2023-01-17T14:33:00.741Z,6.09
2023-01-17T14:35:31.862Z,6.07
2023-01-17T14:38:02.376Z,6.06
2023-01-17T14:40:35.590Z,6.01
2023-01-17T14:43:19.264Z,5.98
2023-01-17T14:45:46.506Z,5.92
2023-01-17T14:48:20.941Z,5.88
2023-01-17T14:50:51.792Z,5.84
2023-01-17T14:53:27.547Z,5.78
2023-01-17T14:56:01.032Z,5.71
2023-01-17T14:58:31.941Z,5.63
2023-01-17T15:01:13.396Z,5.56
2023-01-17T15:03:50.523Z,5.49
2023-01-17T15:06:26.269Z,5.42
2023-01-17T15:08:53.368Z,5.35
2023-01-17T15:11:32.206Z,5.28
2023-01-17T15:14:05.161Z,5.21
2023-01-17T15:16:37.822Z,5.15
2023-01-17T15:19:14.129Z,5.11
2023-01-17T15:21:43.583Z,5.06
2023-01-17T15:24:16.875Z,5.04
2023-01-17T15:26:44.138Z,5.03
2023-01-17T15:29:39.871Z,5.03
2023-01-17T15:32:16.529Z,5.04
2023-01-17T15:34:45.221Z,5.07
2023-01-17T15:37:21.175Z,5.10
2023-01-17T15:39:48.332Z,5.12
2023-01-17T15:42:25.045Z,5.14
2023-01-17T15:44:56.127Z,5.18
2023-01-17T15:47:38.010Z,5.25
2023-01-17T15:50:39.195Z,5.27
2023-01-17T15:53:27.877Z,5.24
2023-01-17T15:55:55.215Z,5.21
2023-01-17T15:58:29.436Z,5.21
2023-01-17T16:00:56.572Z,5.23
2023-01-17T16:03:30.110Z,5.28
2023-01-17T16:05:59.725Z,5.33
2023-01-17T16:08:26.548Z,5.40
2023-01-17T16:10:58.443Z,5.46
2023-01-17T16:13:25.453Z,5.48
2023-01-17T16:15:52.531Z,5.52
2023-01-17T16:18:25.286Z,5.59
2023-01-17T16:21:00.025Z,5.65
2023-01-17T16:23:27.912Z,5.68
2023-01-17T16:25:54.939Z,5.70
2023-01-17T16:28:22.205Z,5.71
2023-01-17T16:30:49.090Z,5.70
2023-01-17T16:33:16.490Z,5.67
2023-01-17T16:35:43.636Z,5.63
2023-01-17T16:38:13.419Z,5.59
2023-01-17T16:40:45.690Z,5.56
2023-01-17T16:43:14.508Z,5.53
2023-01-17T16:45:43.614Z,5.52
2023-01-17T16:48:13.558Z,5.55
2023-01-17T16:50:50.344Z,5.56
2023-01-17T16:53:23.415Z,5.58
2023-01-17T16:55:55.057Z,5.57
2023-01-17T16:58:22.308Z,5.58
2023-01-17T17:00:49.396Z,5.57
2023-01-17T17:03:18.590Z,5.53
2023-01-17T17:05:55.166Z,5.50
2023-01-17T17:08:22.800Z,5.44
2023-01-17T17:10:50.356Z,5.42
2023-01-17T17:13:17.506Z,5.41
2023-01-17T17:15:44.242Z,5.40
2023-01-17T17:18:15.943Z,5.37
2023-01-17T17:20:43.979Z,5.33
2023-01-17T17:23:11.389Z,5.28
2023-01-17T17:25:38.590Z,5.24
2023-01-17T17:28:06.132Z,5.24
2023-01-17T17:30:34.040Z,5.25
2023-01-17T17:33:04.050Z,5.24
2023-01-17T17:35:34.299Z,5.24
2023-01-17T17:38:01.134Z,5.24
2023-01-17T17:40:27.903Z,5.26
2023-01-17T17:42:54.653Z,5.25
2023-01-17T17:45:21.769Z,5.25
2023-01-17T17:47:48.449Z,5.25
2023-01-17T17:50:15.735Z,5.26
2023-01-17T17:52:43.567Z,5.25
2023-01-17T17:55:12.522Z,5.25
2023-01-17T17:57:39.350Z,5.25
2023-01-17T18:00:07.755Z,5.25
2023-01-17T18:02:34.446Z,5.25
2023-01-17T18:05:01.860Z,5.23
2023-01-17T18:07:32.055Z,5.23
2023-01-17T18:09:58.999Z,5.22
2023-01-17T18:12:26.461Z,5.18
2023-01-17T18:14:53.279Z,5.17
2023-01-17T18:17:20.141Z,5.13
2023-01-17T18:19:47.099Z,5.11
2023-01-17T18:22:13.833Z,5.08
2023-01-17T18:24:40.675Z,5.05
2023-01-17T18:27:09.713Z,5.03
2023-01-17T18:29:36.534Z,5.02
2023-01-17T18:32:03.469Z,5.04
2023-01-17T18:34:30.255Z,5.05
2023-01-17T18:36:57.925Z,5.05
2023-01-17T18:39:27.143Z,5.07
2023-01-17T18:41:54.514Z,5.13
2023-01-17T18:44:22.460Z,5.20
2023-01-17T18:46:50.610Z,5.25
2023-01-17T18:49:21.025Z,5.30
2023-01-17T18:51:51.656Z,5.34
2023-01-17T18:54:19.841Z,5.37
2023-01-17T18:56:47.481Z,5.41
2023-01-17T18:59:17.657Z,5.43
2023-01-17T19:01:45.005Z,5.46
2023-01-17T19:04:13.584Z,5.48
2023-01-17T19:06:43.487Z,5.50
2023-01-17T19:09:12.668Z,5.50
2023-01-17T19:11:40.074Z,5.50
2023-01-17T19:14:07.284Z,5.48
2023-01-17T19:16:38.761Z,5.47
2023-01-17T19:19:10.518Z,5.44
2023-01-17T19:21:37.740Z,5.43
2023-01-17T19:24:06.952Z,5.42
2023-01-17T19:26:33.919Z,5.40
2023-01-17T19:29:04.410Z,5.38
2023-01-17T19:31:35.167Z,5.37
2023-01-17T19:34:02.328Z,5.36
2023-01-17T19:36:34.504Z,5.37
2023-01-17T19:39:05.252Z,5.36
2023-01-17T19:41:35.184Z,5.36
2023-01-17T19:44:05.403Z,5.35
2023-01-17T19:46:33.257Z,5.35
2023-01-17T19:49:00.483Z,5.34
2023-01-17T19:51:27.934Z,5.35
2023-01-17T19:53:55.517Z,5.35
2023-01-17T19:56:25.101Z,5.40
2023-01-17T19:58:52.460Z,5.47
2023-01-17T20:01:29.524Z,5.56
2023-01-17T20:03:58.215Z,5.66
2023-01-17T20:06:28.993Z,5.73
2023-01-17T20:08:56.647Z,5.83
2023-01-17T20:11:27.386Z,5.91
2023-01-17T20:13:56.188Z,5.99
2023-01-17T20:16:24.818Z,6.08
2023-01-17T20:18:52.743Z,6.12
2023-01-17T20:21:22.423Z,6.15
2023-01-17T20:23:51.113Z,6.16
2023-01-17T20:26:21.898Z,6.14
2023-01-17T20:28:53.657Z,6.13
2023-01-17T20:31:23.429Z,6.13
2023-01-17T20:33:52.730Z,6.12
2023-01-17T20:36:22.748Z,6.13
2023-01-17T20:38:50.299Z,6.14
2023-01-17T20:41:28.416Z,6.18
2023-01-17T20:43:57.710Z,6.30
2023-01-17T20:46:27.342Z,6.38
2023-01-17T20:48:57.203Z,6.46
2023-01-17T20:51:26.036Z,6.57
2023-01-17T20:53:55.743Z,6.63
2023-01-17T20:56:24.026Z,6.68
2023-01-17T20:58:56.051Z,6.72
2023-01-17T21:01:22.971Z,6.76
2023-01-17T21:03:53.252Z,6.79
2023-01-17T21:06:22.644Z,6.81
2023-01-17T21:08:51.152Z,6.86
2023-01-17T21:11:23.854Z,6.88
2023-01-17T21:13:51.402Z,6.91
2023-01-17T21:16:22.281Z,6.92
2023-01-17T21:18:51.126Z,6.92
2023-01-17T21:21:23.629Z,6.91
2023-01-17T21:23:53.010Z,6.91
2023-01-17T21:26:21.971Z,6.89
2023-01-17T21:28:50.289Z,6.86
2023-01-17T21:31:27.675Z,6.86
2023-01-17T21:33:55.825Z,6.85
2023-01-17T21:36:26.883Z,6.85
2023-01-17T21:38:56.531Z,6.88
2023-01-17T21:41:28.950Z,6.96
2023-01-17T21:44:01.041Z,7.04
2023-01-17T21:46:29.367Z,7.07
2023-01-17T21:48:57.181Z,7.10
2023-01-17T21:51:44.918Z,7.13
2023-01-17T21:54:12.081Z,7.18
2023-01-17T21:56:57.856Z,7.27
2023-01-17T21:59:24.710Z,7.30
2023-01-17T22:01:51.563Z,7.33
2023-01-17T22:04:18.414Z,7.35
2023-01-17T22:06:46.164Z,7.37
2023-01-17T22:09:14.651Z,7.43
2023-01-17T22:11:41.601Z,7.46
2023-01-17T22:14:08.841Z,7.49
2023-01-17T22:16:35.691Z,7.52
2023-01-17T22:19:02.750Z,7.54
2023-01-17T22:21:29.702Z,7.54
2023-01-17T22:23:58.902Z,7.56
2023-01-17T22:26:29.005Z,7.58
2023-01-17T22:28:59.333Z,7.59
2023-01-17T22:31:26.996Z,7.59
2023-01-17T22:33:55.520Z,7.58
2023-01-17T22:36:23.154Z,7.57
2023-01-17T22:38:50.171Z,7.57
2023-01-17T22:41:22.767Z,7.56
2023-01-17T22:43:52.396Z,7.54
2023-01-17T22:46:25.445Z,7.53
2023-01-17T22:48:54.064Z,7.50
2023-01-17T22:51:22.760Z,7.49
2023-01-17T22:53:52.643Z,7.45
2023-01-17T22:56:22.583Z,7.43
2023-01-17T22:58:50.357Z,7.42
2023-01-17T23:01:24.010Z,7.37
2023-01-17T23:03:55.080Z,7.34
2023-01-17T23:06:27.499Z,7.29
2023-01-17T23:08:56.701Z,7.32
2023-01-17T23:11:49.419Z,7.33
2023-01-17T23:14:51.599Z,7.36
2023-01-17T23:17:40.060Z,7.37
2023-01-17T23:20:10.454Z,7.38
2023-01-17T23:22:37.753Z,7.35
2023-01-17T23:25:07.345Z,7.35
2023-01-17T23:28:03.957Z,7.36
2023-01-17T23:30:36.772Z,7.40
2023-01-17T23:33:09.083Z,7.40
2023-01-17T23:35:41.721Z,7.41
2023-01-17T23:38:33.246Z,7.42
2023-01-17T23:41:22.626Z,7.41
2023-01-17T23:43:51.717Z,7.35
2023-01-17T23:46:19.251Z,7.31
2023-01-17T23:48:46.533Z,7.30
2023-01-17T23:51:13.426Z,7.26
2023-01-17T23:53:40.435Z,7.23
2023-01-17T23:56:15.348Z,7.16
2023-01-17T23:58:42.309Z,7.05
